createdAt,value
2022-09-05T00:04:38.257Z,100.00
2022-09-05T00:10:08.357Z,100.00
2022-09-05T00:15:28.123Z,100.00
2022-09-05T00:24:37.273Z,100.00
2022-09-05T00:26:22.315Z,100.00
2022-09-05T00:31:54.744Z,100.00
2022-09-05T00:37:01.936Z,100.00
2022-09-05T00:42:11.610Z,100.00
2022-09-05T00:47:38.891Z,100.00
2022-09-05T00:52:50.505Z,100.00
2022-09-05T00:58:34.362Z,100.00
2022-09-05T01:04:05.979Z,100.00
2022-09-05T01:09:17.232Z,100.00
2022-09-05T01:14:42.349Z,100.00
2022-09-05T01:20:19.359Z,100.00
2022-09-05T01:25:46.963Z,100.00
2022-09-05T01:31:12.411Z,100.00
2022-09-05T01:36:31.621Z,100.00
2022-09-05T01:41:44.231Z,100.00
2022-09-05T01:47:01.864Z,100.00
2022-09-05T01:52:25.627Z,100.00
2022-09-05T01:57:38.549Z,100.00
2022-09-05T02:03:01.754Z,100.00
2022-09-05T02:08:30.338Z,100.00
2022-09-05T02:13:57.193Z,100.00
2022-09-05T02:19:15.047Z,100.00
2022-09-05T02:24:25.764Z,100.00
2022-09-05T02:29:38.106Z,100.00
2022-09-05T02:34:53.851Z,100.00
2022-09-05T02:45:09.645Z,100.00
2022-09-05T02:45:40.603Z,100.00
2022-09-05T02:56:42.507Z,100.00
2022-09-05T02:57:43.080Z,100.00
2022-09-05T03:02:26.125Z,100.00
2022-09-05T03:07:48.101Z,100.00
2022-09-05T03:13:28.681Z,100.00
2022-09-05T03:19:14.771Z,100.00
2022-09-05T03:24:56.001Z,100.00
2022-09-05T03:30:12.305Z,100.00
2022-09-05T03:35:46.636Z,100.00
2022-09-05T03:41:12.032Z,100.00
2022-09-05T03:46:50.778Z,100.00
2022-09-05T03:57:10.744Z,100.00
2022-09-05T03:58:18.219Z,100.00
2022-09-05T04:07:08.772Z,100.00
2022-09-05T04:08:59.189Z,100.00
2022-09-05T04:14:11.063Z,100.00
2022-09-05T04:19:22.780Z,100.00
2022-09-05T04:24:33.003Z,100.00
2022-09-05T04:29:59.412Z,100.00
2022-09-05T04:35:25.392Z,100.00
2022-09-05T04:40:40.446Z,100.00
2022-09-05T04:45:54.052Z,100.00
2022-09-05T04:51:13.175Z,100.00
2022-09-05T04:56:23.711Z,100.00
2022-09-05T05:06:02.382Z,100.00
2022-09-05T05:07:10.127Z,100.00
2022-09-05T05:17:25.367Z,100.00
2022-09-05T05:18:49.092Z,100.00
2022-09-05T05:23:31.852Z,100.00
2022-09-05T05:28:52.130Z,100.00
2022-09-05T05:34:03.843Z,100.00
2022-09-05T05:39:22.538Z,100.00
2022-09-05T05:44:30.783Z,100.00
2022-09-05T05:49:49.714Z,100.00
2022-09-05T05:55:52.368Z,100.00
2022-09-05T06:00:36.424Z,100.00
2022-09-05T06:06:11.464Z,100.00
2022-09-05T06:14:51.045Z,100.00
2022-09-05T06:17:35.916Z,100.00
2022-09-05T06:23:05.011Z,100.00
2022-09-05T06:28:23.077Z,100.00
2022-09-05T06:33:48.503Z,100.00
2022-09-05T06:39:08.569Z,100.00
2022-09-05T06:44:28.416Z,100.00
2022-09-05T06:49:50.455Z,100.00
2022-09-05T06:55:28.018Z,100.00
2022-09-05T07:00:42.987Z,100.00
2022-09-05T07:05:57.848Z,100.00
2022-09-05T07:11:15.765Z,100.00
2022-09-05T07:16:38.015Z,100.00
2022-09-05T07:21:49.067Z,100.00
2022-09-05T07:27:01.721Z,100.00
2022-09-05T07:32:11.868Z,100.00
2022-09-05T07:37:24.262Z,100.00
2022-09-05T07:42:37.266Z,100.00
2022-09-05T07:47:52.028Z,100.00
2022-09-05T07:56:55.051Z,100.00
2022-09-05T07:58:26.589Z,100.00
2022-09-05T08:03:34.109Z,100.00
2022-09-05T08:08:55.975Z,100.00
2022-09-05T08:14:40.755Z,100.00
2022-09-05T08:20:12.825Z,100.00
2022-09-05T08:25:21.296Z,100.00
2022-09-05T08:30:30.550Z,100.00
2022-09-05T08:35:45.028Z,100.00
2022-09-05T08:40:56.347Z,100.00
2022-09-05T08:46:42.292Z,100.00
2022-09-05T08:51:54.072Z,100.00
2022-09-05T08:57:05.250Z,100.00
2022-09-05T09:02:55.033Z,100.00
2022-09-05T09:08:16.098Z,100.00
2022-09-05T09:13:34.646Z,100.00
2022-09-05T09:19:06.007Z,100.00
2022-09-05T09:24:27.733Z,100.00
2022-09-05T09:29:39.192Z,100.00
2022-09-05T09:34:56.466Z,100.00
2022-09-05T09:40:24.655Z,100.00
2022-09-05T09:45:49.316Z,100.00
2022-09-05T09:51:14.589Z,100.00
2022-09-05T09:56:51.034Z,100.00
2022-09-05T10:04:05.733Z,100.00
2022-09-05T10:10:58.386Z,100.00
2022-09-05T10:14:24.242Z,100.00
2022-09-05T10:20:11.716Z,100.00
2022-09-05T10:25:51.426Z,100.00
2022-09-05T10:32:16.324Z,100.00
2022-09-05T10:36:41.950Z,100.00
2022-09-05T10:41:51.048Z,100.00
2022-09-05T10:47:09.596Z,100.00
2022-09-05T10:52:19.277Z,100.00
2022-09-05T10:57:38.349Z,100.00
2022-09-05T11:02:49.153Z,100.00
2022-09-05T11:08:07.290Z,100.00
2022-09-05T11:13:23.970Z,95.83
2022-09-05T11:18:55.200Z,98.46
2022-09-05T11:24:10.398Z,94.23
2022-09-05T11:29:19.030Z,90.12
2022-09-05T11:39:57.301Z,93.93
2022-09-05T11:40:44.818Z,85.34
2022-09-05T11:46:23.593Z,74.67
2022-09-05T11:52:07.667Z,68.69
2022-09-05T11:57:34.454Z,75.19
2022-09-05T12:03:12.203Z,81.62
2022-09-05T12:08:43.412Z,81.42
2022-09-05T12:13:54.788Z,81.84
2022-09-05T12:19:19.367Z,76.64
2022-09-05T12:25:15.559Z,77.19
2022-09-05T12:30:02.772Z,78.80
2022-09-05T12:36:07.973Z,70.93
2022-09-05T12:41:36.786Z,69.70
2022-09-05T12:46:14.995Z,71.02
2022-09-05T12:51:46.139Z,67.54
2022-09-05T13:02:01.489Z,65.27
2022-09-05T13:03:07.315Z,64.12
2022-09-05T13:07:59.400Z,62.04
2022-09-05T13:14:53.613Z,65.15
2022-09-05T13:18:44.441Z,64.20
2022-09-05T13:24:00.998Z,66.70
2022-09-05T13:29:16.807Z,66.68
2022-09-05T13:38:17.618Z,68.94
2022-09-05T13:39:57.332Z,68.97
2022-09-05T13:45:06.397Z,68.73
2022-09-05T13:50:24.044Z,72.91
2022-09-05T13:55:41.590Z,74.45
2022-09-05T14:01:14.504Z,72.15
2022-09-05T14:06:48.921Z,73.25
2022-09-05T14:12:05.441Z,70.26
2022-09-05T14:23:03.859Z,70.36
2022-09-05T14:28:16.013Z,69.39
2022-09-05T14:37:45.452Z,64.76
2022-09-05T14:39:31.986Z,63.44
2022-09-05T14:44:51.769Z,64.51
2022-09-05T14:50:17.926Z,62.99
2022-09-05T14:55:25.721Z,64.26
2022-09-05T15:02:51.542Z,64.12
2022-09-05T15:05:59.006Z,59.71
2022-09-05T15:12:17.200Z,55.75
2022-09-05T15:16:40.474Z,55.09
2022-09-05T15:21:48.316Z,54.68
2022-09-05T15:26:54.953Z,53.43
2022-09-05T15:32:16.269Z,51.77
2022-09-05T15:37:31.901Z,51.32
2022-09-05T15:42:38.508Z,52.23
2022-09-05T15:47:50.657Z,54.02
2022-09-05T15:52:58.807Z,54.03
2022-09-05T15:58:07.513Z,54.92
2022-09-05T16:05:10.296Z,54.21
2022-09-05T16:10:36.592Z,55.77
2022-09-05T16:14:30.290Z,55.12
2022-09-05T16:23:20.280Z,54.82
2022-09-05T16:25:11.380Z,55.90
2022-09-05T16:30:23.911Z,57.60
2022-09-05T16:35:29.161Z,59.06
2022-09-05T16:40:41.368Z,60.04
2022-09-05T16:45:52.041Z,62.19
2022-09-05T16:51:13.456Z,64.43
2022-09-05T16:56:26.456Z,66.48
2022-09-05T17:01:48.773Z,72.15
2022-09-05T17:07:06.320Z,75.31
2022-09-05T17:12:22.065Z,79.82
2022-09-05T17:18:19.411Z,88.84
2022-09-05T17:27:42.800Z,95.37
2022-09-05T17:29:29.819Z,100.00
2022-09-05T17:34:43.432Z,100.00
2022-09-05T17:39:56.608Z,100.00
2022-09-05T17:45:15.666Z,100.00
2022-09-05T17:50:23.206Z,100.00
2022-09-05T17:55:58.761Z,100.00
2022-09-05T18:01:26.786Z,100.00
2022-09-05T18:06:35.819Z,100.00
2022-09-05T18:17:59.965Z,100.00
2022-09-05T18:29:19.251Z,100.00
2022-09-05T18:34:45.568Z,100.00
2022-09-05T18:40:07.198Z,100.00
2022-09-05T18:45:16.466Z,100.00
2022-09-05T18:50:27.943Z,100.00
2022-09-05T18:56:14.249Z,100.00
2022-09-05T19:01:22.727Z,100.00
2022-09-05T19:06:38.000Z,100.00
2022-09-05T19:11:55.371Z,100.00
2022-09-05T19:17:07.602Z,100.00
2022-09-05T19:23:08.625Z,100.00
2022-09-05T19:34:56.295Z,100.00
2022-09-05T19:37:13.890Z,100.00
2022-09-05T19:41:13.581Z,100.00
2022-09-05T19:47:45.139Z,100.00
2022-09-05T19:50:01.696Z,100.00
2022-09-05T19:55:21.234Z,100.00
2022-09-05T20:00:31.102Z,100.00
2022-09-05T20:05:36.022Z,100.00
2022-09-05T20:10:40.721Z,100.00
2022-09-05T20:15:48.043Z,100.00
2022-09-05T20:20:56.092Z,100.00
2022-09-05T20:31:19.391Z,100.00
2022-09-05T20:42:14.070Z,100.00
2022-09-05T20:43:14.981Z,100.00
2022-09-05T20:50:35.709Z,100.00
2022-09-05T20:54:18.233Z,100.00
2022-09-05T20:58:19.292Z,100.00
2022-09-05T21:03:36.776Z,100.00
2022-09-05T21:08:41.942Z,100.00
2022-09-05T21:13:53.534Z,100.00
2022-09-05T21:19:00.965Z,100.00
2022-09-05T21:24:16.117Z,100.00
2022-09-05T21:29:32.805Z,100.00
2022-09-05T21:34:45.339Z,100.00
2022-09-05T21:40:00.529Z,100.00
2022-09-05T21:47:42.244Z,100.00
2022-09-05T21:50:39.749Z,100.00
2022-09-05T21:59:21.315Z,100.00
2022-09-05T22:01:09.045Z,100.00
2022-09-05T22:06:18.778Z,100.00
2022-09-05T22:11:23.830Z,100.00
2022-09-05T22:16:34.530Z,100.00
2022-09-05T22:21:43.041Z,100.00
2022-09-05T22:27:12.267Z,100.00
2022-09-05T22:32:28.562Z,100.00
2022-09-05T22:37:44.567Z,100.00
2022-09-05T22:42:58.239Z,100.00
2022-09-05T22:48:08.813Z,100.00
2022-09-05T22:53:15.993Z,100.00
2022-09-05T22:58:21.639Z,100.00
2022-09-05T23:03:26.304Z,100.00
2022-09-05T23:08:33.613Z,100.00
2022-09-05T23:13:38.288Z,100.00
2022-09-05T23:18:43.586Z,100.00
2022-09-05T23:23:50.788Z,100.00
2022-09-05T23:28:55.439Z,100.00
2022-09-05T23:34:00.079Z,100.00
2022-09-05T23:39:07.313Z,100.00
2022-09-05T23:44:12.137Z,100.00
2022-09-05T23:49:16.989Z,100.00
2022-09-05T23:54:24.827Z,100.00
2022-09-05T23:59:29.595Z,100.00
